sensor_id;sensor_type;location;lat;lon;timestamp;P1;durP1;ratioP1;P2;durP2;ratioP2
43877;SDS011;29815;48.184;11.268;2023-04-06T00:02:08;10.20;;;7.85;;
43877;SDS011;29815;48.184;11.268;2023-04-06T00:04:38;9.70;;;7.47;;
43877;SDS011;29815;48.184;11.268;2023-04-06T00:07:08;10.55;;;8.95;;
43877;SDS011;29815;48.184;11.268;2023-04-06T00:09:37;12.48;;;7.70;;
43877;SDS011;29815;48.184;11.268;2023-04-06T00:12:07;8.38;;;7.35;;
43877;SDS011;29815;48.184;11.268;2023-04-06T00:14:37;12.10;;;7.57;;
43877;SDS011;29815;48.184;11.268;2023-04-06T00:17:09;9.13;;;7.32;;
43877;SDS011;29815;48.184;11.268;2023-04-06T00:19:38;9.85;;;7.65;;
43877;SDS011;29815;48.184;11.268;2023-04-06T00:22:08;11.40;;;7.63;;
43877;SDS011;29815;48.184;11.268;2023-04-06T00:24:38;8.15;;;6.93;;
43877;SDS011;29815;48.184;11.268;2023-04-06T00:27:08;9.60;;;6.80;;
43877;SDS011;29815;48.184;11.268;2023-04-06T00:29:37;12.05;;;7.78;;
43877;SDS011;29815;48.184;11.268;2023-04-06T00:32:09;11.13;;;8.32;;
43877;SDS011;29815;48.184;11.268;2023-04-06T00:34:38;9.55;;;7.30;;
43877;SDS011;29815;48.184;11.268;2023-04-06T00:37:08;10.55;;;8.07;;
43877;SDS011;29815;48.184;11.268;2023-04-06T00:39:39;10.27;;;7.28;;
43877;SDS011;29815;48.184;11.268;2023-04-06T00:42:10;11.35;;;7.55;;
43877;SDS011;29815;48.184;11.268;2023-04-06T00:44:43;14.83;;;8.47;;
43877;SDS011;29815;48.184;11.268;2023-04-06T00:47:13;9.43;;;6.78;;
43877;SDS011;29815;48.184;11.268;2023-04-06T00:49:42;9.32;;;7.13;;
43877;SDS011;29815;48.184;11.268;2023-04-06T00:52:12;12.88;;;7.82;;
43877;SDS011;29815;48.184;11.268;2023-04-06T00:54:45;9.38;;;7.63;;
43877;SDS011;29815;48.184;11.268;2023-04-06T00:57:16;11.15;;;7.40;;
43877;SDS011;29815;48.184;11.268;2023-04-06T00:59:53;9.95;;;6.70;;
43877;SDS011;29815;48.184;11.268;2023-04-06T01:02:23;7.95;;;6.75;;
43877;SDS011;29815;48.184;11.268;2023-04-06T01:04:54;6.70;;;6.00;;
43877;SDS011;29815;48.184;11.268;2023-04-06T01:07:35;9.25;;;6.53;;
43877;SDS011;29815;48.184;11.268;2023-04-06T01:10:21;8.77;;;6.70;;
43877;SDS011;29815;48.184;11.268;2023-04-06T01:12:59;8.45;;;6.68;;
43877;SDS011;29815;48.184;11.268;2023-04-06T01:15:45;12.45;;;7.45;;
43877;SDS011;29815;48.184;11.268;2023-04-06T01:18:25;11.40;;;7.20;;
43877;SDS011;29815;48.184;11.268;2023-04-06T01:21:06;10.25;;;7.43;;
43877;SDS011;29815;48.184;11.268;2023-04-06T01:23:55;10.80;;;7.57;;
43877;SDS011;29815;48.184;11.268;2023-04-06T01:26:32;11.55;;;7.18;;
43877;SDS011;29815;48.184;11.268;2023-04-06T01:29:06;8.55;;;6.78;;
43877;SDS011;29815;48.184;11.268;2023-04-06T01:31:36;10.65;;;7.65;;
43877;SDS011;29815;48.184;11.268;2023-04-06T01:34:07;10.82;;;7.20;;
43877;SDS011;29815;48.184;11.268;2023-04-06T01:36:36;10.50;;;7.07;;
43877;SDS011;29815;48.184;11.268;2023-04-06T01:39:21;8.88;;;6.80;;
43877;SDS011;29815;48.184;11.268;2023-04-06T01:41:51;9.40;;;6.88;;
43877;SDS011;29815;48.184;11.268;2023-04-06T01:44:21;8.07;;;6.72;;
43877;SDS011;29815;48.184;11.268;2023-04-06T01:47:03;9.38;;;6.75;;
43877;SDS011;29815;48.184;11.268;2023-04-06T01:49:33;8.50;;;6.28;;
43877;SDS011;29815;48.184;11.268;2023-04-06T01:52:03;11.15;;;7.65;;
43877;SDS011;29815;48.184;11.268;2023-04-06T01:54:36;12.93;;;7.88;;
43877;SDS011;29815;48.184;11.268;2023-04-06T01:57:06;14.10;;;9.75;;
43877;SDS011;29815;48.184;11.268;2023-04-06T01:59:50;11.63;;;7.88;;
43877;SDS011;29815;48.184;11.268;2023-04-06T02:02:40;9.75;;;7.50;;
43877;SDS011;29815;48.184;11.268;2023-04-06T02:05:18;12.10;;;8.23;;
43877;SDS011;29815;48.184;11.268;2023-04-06T02:07:50;11.02;;;7.25;;
43877;SDS011;29815;48.184;11.268;2023-04-06T02:10:30;10.02;;;7.07;;
43877;SDS011;29815;48.184;11.268;2023-04-06T02:13:04;9.27;;;6.63;;
43877;SDS011;29815;48.184;11.268;2023-04-06T02:15:34;10.43;;;7.20;;
43877;SDS011;29815;48.184;11.268;2023-04-06T02:18:04;8.63;;;7.22;;
43877;SDS011;29815;48.184;11.268;2023-04-06T02:20:34;8.50;;;7.22;;
43877;SDS011;29815;48.184;11.268;2023-04-06T02:23:04;11.23;;;7.30;;
43877;SDS011;29815;48.184;11.268;2023-04-06T02:25:35;8.68;;;6.78;;
43877;SDS011;29815;48.184;11.268;2023-04-06T02:28:05;10.63;;;7.10;;
43877;SDS011;29815;48.184;11.268;2023-04-06T02:30:35;12.80;;;8.27;;
43877;SDS011;29815;48.184;11.268;2023-04-06T02:33:05;10.05;;;6.97;;
43877;SDS011;29815;48.184;11.268;2023-04-06T02:35:43;9.15;;;6.80;;
43877;SDS011;29815;48.184;11.268;2023-04-06T02:38:14;10.27;;;6.47;;
43877;SDS011;29815;48.184;11.268;2023-04-06T02:40:46;8.95;;;6.60;;
43877;SDS011;29815;48.184;11.268;2023-04-06T02:43:22;10.13;;;7.30;;
43877;SDS011;29815;48.184;11.268;2023-04-06T02:45:59;10.25;;;8.10;;
43877;SDS011;29815;48.184;11.268;2023-04-06T02:48:32;11.23;;;7.63;;
43877;SDS011;29815;48.184;11.268;2023-04-06T02:51:03;12.25;;;8.38;;
43877;SDS011;29815;48.184;11.268;2023-04-06T02:53:34;10.18;;;7.97;;
43877;SDS011;29815;48.184;11.268;2023-04-06T02:56:06;12.68;;;8.25;;
43877;SDS011;29815;48.184;11.268;2023-04-06T02:58:49;10.00;;;7.63;;
43877;SDS011;29815;48.184;11.268;2023-04-06T03:01:21;11.82;;;8.50;;
43877;SDS011;29815;48.184;11.268;2023-04-06T03:03:56;10.25;;;7.25;;
43877;SDS011;29815;48.184;11.268;2023-04-06T03:06:28;12.43;;;7.50;;
43877;SDS011;29815;48.184;11.268;2023-04-06T03:09:07;9.77;;;7.40;;
43877;SDS011;29815;48.184;11.268;2023-04-06T03:11:42;13.65;;;8.38;;
43877;SDS011;29815;48.184;11.268;2023-04-06T03:14:11;13.68;;;9.05;;
43877;SDS011;29815;48.184;11.268;2023-04-06T03:16:42;12.88;;;9.30;;
43877;SDS011;29815;48.184;11.268;2023-04-06T03:19:16;15.88;;;9.07;;
43877;SDS011;29815;48.184;11.268;2023-04-06T03:21:46;12.60;;;9.60;;
43877;SDS011;29815;48.184;11.268;2023-04-06T03:24:18;11.25;;;8.25;;
43877;SDS011;29815;48.184;11.268;2023-04-06T03:26:49;10.35;;;8.02;;
43877;SDS011;29815;48.184;11.268;2023-04-06T03:29:19;9.88;;;8.30;;
43877;SDS011;29815;48.184;11.268;2023-04-06T03:31:49;11.55;;;7.82;;
43877;SDS011;29815;48.184;11.268;2023-04-06T03:34:32;12.15;;;7.85;;
43877;SDS011;29815;48.184;11.268;2023-04-06T03:37:02;9.68;;;7.20;;
43877;SDS011;29815;48.184;11.268;2023-04-06T03:39:40;12.70;;;8.57;;
43877;SDS011;29815;48.184;11.268;2023-04-06T03:44:52;14.32;;;9.15;;
43877;SDS011;29815;48.184;11.268;2023-04-06T03:47:22;12.82;;;9.25;;
43877;SDS011;29815;48.184;11.268;2023-04-06T03:49:56;9.82;;;7.85;;
43877;SDS011;29815;48.184;11.268;2023-04-06T03:52:26;11.20;;;8.90;;
43877;SDS011;29815;48.184;11.268;2023-04-06T03:54:56;10.38;;;8.07;;
43877;SDS011;29815;48.184;11.268;2023-04-06T03:57:27;17.95;;;10.45;;
43877;SDS011;29815;48.184;11.268;2023-04-06T03:59:58;13.23;;;8.65;;
43877;SDS011;29815;48.184;11.268;2023-04-06T04:02:27;12.82;;;9.55;;
43877;SDS011;29815;48.184;11.268;2023-04-06T04:04:57;12.00;;;9.13;;
43877;SDS011;29815;48.184;11.268;2023-04-06T04:07:27;14.43;;;9.02;;
43877;SDS011;29815;48.184;11.268;2023-04-06T04:09:57;15.35;;;9.32;;
43877;SDS011;29815;48.184;11.268;2023-04-06T04:12:28;12.40;;;8.98;;
43877;SDS011;29815;48.184;11.268;2023-04-06T04:14:59;15.18;;;9.18;;
43877;SDS011;29815;48.184;11.268;2023-04-06T04:17:28;14.23;;;9.45;;
43877;SDS011;29815;48.184;11.268;2023-04-06T04:19:58;13.93;;;9.80;;
43877;SDS011;29815;48.184;11.268;2023-04-06T04:22:28;13.32;;;9.18;;
43877;SDS011;29815;48.184;11.268;2023-04-06T04:24:57;14.50;;;9.63;;
43877;SDS011;29815;48.184;11.268;2023-04-06T04:27:31;16.50;;;10.77;;
43877;SDS011;29815;48.184;11.268;2023-04-06T04:30:01;13.02;;;8.98;;
43877;SDS011;29815;48.184;11.268;2023-04-06T04:32:31;12.68;;;8.65;;
43877;SDS011;29815;48.184;11.268;2023-04-06T04:35:04;8.83;;;7.03;;
43877;SDS011;29815;48.184;11.268;2023-04-06T04:37:37;11.45;;;8.20;;
43877;SDS011;29815;48.184;11.268;2023-04-06T04:40:08;14.13;;;8.75;;
43877;SDS011;29815;48.184;11.268;2023-04-06T04:42:57;12.25;;;7.93;;
43877;SDS011;29815;48.184;11.268;2023-04-06T04:45:33;13.05;;;8.90;;
43877;SDS011;29815;48.184;11.268;2023-04-06T04:48:22;13.57;;;9.30;;
43877;SDS011;29815;48.184;11.268;2023-04-06T04:50:58;16.25;;;9.23;;
43877;SDS011;29815;48.184;11.268;2023-04-06T04:53:36;10.52;;;8.63;;
43877;SDS011;29815;48.184;11.268;2023-04-06T04:56:16;12.23;;;9.55;;
43877;SDS011;29815;48.184;11.268;2023-04-06T04:58:51;13.98;;;9.98;;
43877;SDS011;29815;48.184;11.268;2023-04-06T05:01:21;15.23;;;10.05;;
43877;SDS011;29815;48.184;11.268;2023-04-06T05:03:51;13.95;;;9.40;;
43877;SDS011;29815;48.184;11.268;2023-04-06T05:06:21;15.27;;;10.23;;
43877;SDS011;29815;48.184;11.268;2023-04-06T05:08:53;15.85;;;10.07;;
43877;SDS011;29815;48.184;11.268;2023-04-06T05:11:23;18.35;;;10.77;;
43877;SDS011;29815;48.184;11.268;2023-04-06T05:14:00;16.20;;;10.55;;
43877;SDS011;29815;48.184;11.268;2023-04-06T05:16:30;15.20;;;9.85;;
43877;SDS011;29815;48.184;11.268;2023-04-06T05:18:59;17.73;;;11.57;;
43877;SDS011;29815;48.184;11.268;2023-04-06T05:21:38;18.90;;;11.10;;
43877;SDS011;29815;48.184;11.268;2023-04-06T05:24:09;16.33;;;10.75;;
43877;SDS011;29815;48.184;11.268;2023-04-06T05:26:39;18.90;;;11.65;;
43877;SDS011;29815;48.184;11.268;2023-04-06T05:29:19;14.98;;;10.43;;
43877;SDS011;29815;48.184;11.268;2023-04-06T05:31:49;19.88;;;12.65;;
43877;SDS011;29815;48.184;11.268;2023-04-06T05:34:20;21.70;;;13.35;;
43877;SDS011;29815;48.184;11.268;2023-04-06T05:36:50;17.15;;;12.50;;
43877;SDS011;29815;48.184;11.268;2023-04-06T05:39:23;19.63;;;12.05;;
43877;SDS011;29815;48.184;11.268;2023-04-06T05:41:54;17.52;;;11.20;;
43877;SDS011;29815;48.184;11.268;2023-04-06T05:44:57;18.27;;;10.75;;
43877;SDS011;29815;48.184;11.268;2023-04-06T05:47:27;16.05;;;10.70;;
43877;SDS011;29815;48.184;11.268;2023-04-06T05:50:05;15.85;;;10.18;;
43877;SDS011;29815;48.184;11.268;2023-04-06T05:52:38;14.40;;;10.27;;
43877;SDS011;29815;48.184;11.268;2023-04-06T05:55:12;19.67;;;11.95;;
43877;SDS011;29815;48.184;11.268;2023-04-06T05:57:46;17.40;;;10.80;;
43877;SDS011;29815;48.184;11.268;2023-04-06T06:00:20;16.60;;;11.85;;
43877;SDS011;29815;48.184;11.268;2023-04-06T06:03:00;14.82;;;10.02;;
43877;SDS011;29815;48.184;11.268;2023-04-06T06:05:31;15.85;;;11.73;;
43877;SDS011;29815;48.184;11.268;2023-04-06T06:08:09;15.20;;;10.75;;
43877;SDS011;29815;48.184;11.268;2023-04-06T06:10:39;13.68;;;10.23;;
43877;SDS011;29815;48.184;11.268;2023-04-06T06:13:11;15.52;;;11.52;;
43877;SDS011;29815;48.184;11.268;2023-04-06T06:15:42;18.95;;;11.77;;
43877;SDS011;29815;48.184;11.268;2023-04-06T06:18:13;15.80;;;11.70;;
43877;SDS011;29815;48.184;11.268;2023-04-06T06:20:43;19.42;;;13.18;;
43877;SDS011;29815;48.184;11.268;2023-04-06T06:23:13;23.90;;;13.50;;
43877;SDS011;29815;48.184;11.268;2023-04-06T06:25:43;17.65;;;12.10;;
43877;SDS011;29815;48.184;11.268;2023-04-06T06:28:13;15.85;;;11.93;;
43877;SDS011;29815;48.184;11.268;2023-04-06T06:30:44;15.73;;;10.57;;
43877;SDS011;29815;48.184;11.268;2023-04-06T06:33:19;17.35;;;11.52;;
43877;SDS011;29815;48.184;11.268;2023-04-06T06:35:51;18.08;;;11.45;;
43877;SDS011;29815;48.184;11.268;2023-04-06T06:38:21;18.15;;;11.80;;
43877;SDS011;29815;48.184;11.268;2023-04-06T06:40:51;13.15;;;11.07;;
43877;SDS011;29815;48.184;11.268;2023-04-06T06:43:24;15.40;;;10.77;;
43877;SDS011;29815;48.184;11.268;2023-04-06T06:46:07;13.00;;;10.07;;
43877;SDS011;29815;48.184;11.268;2023-04-06T06:48:36;11.55;;;8.73;;
43877;SDS011;29815;48.184;11.268;2023-04-06T06:51:06;13.70;;;9.77;;
43877;SDS011;29815;48.184;11.268;2023-04-06T06:53:36;12.40;;;9.27;;
43877;SDS011;29815;48.184;11.268;2023-04-06T06:56:06;11.85;;;8.82;;
43877;SDS011;29815;48.184;11.268;2023-04-06T06:58:36;13.35;;;8.95;;
43877;SDS011;29815;48.184;11.268;2023-04-06T07:01:07;12.52;;;9.48;;
43877;SDS011;29815;48.184;11.268;2023-04-06T07:03:37;11.38;;;9.13;;
43877;SDS011;29815;48.184;11.268;2023-04-06T07:06:07;14.32;;;9.65;;
43877;SDS011;29815;48.184;11.268;2023-04-06T07:08:39;10.30;;;8.63;;
43877;SDS011;29815;48.184;11.268;2023-04-06T07:11:09;13.48;;;9.32;;
43877;SDS011;29815;48.184;11.268;2023-04-06T07:13:39;12.82;;;9.07;;
43877;SDS011;29815;48.184;11.268;2023-04-06T07:16:10;9.90;;;8.88;;
43877;SDS011;29815;48.184;11.268;2023-04-06T07:18:40;14.18;;;9.43;;
43877;SDS011;29815;48.184;11.268;2023-04-06T07:21:10;12.23;;;9.35;;
43877;SDS011;29815;48.184;11.268;2023-04-06T07:23:40;18.77;;;9.50;;
43877;SDS011;29815;48.184;11.268;2023-04-06T07:26:10;9.65;;;8.57;;
43877;SDS011;29815;48.184;11.268;2023-04-06T07:28:40;12.15;;;8.38;;
43877;SDS011;29815;48.184;11.268;2023-04-06T07:31:13;9.45;;;8.43;;
43877;SDS011;29815;48.184;11.268;2023-04-06T07:33:42;10.23;;;8.35;;
43877;SDS011;29815;48.184;11.268;2023-04-06T07:36:12;11.25;;;8.02;;
43877;SDS011;29815;48.184;11.268;2023-04-06T07:38:44;9.15;;;8.15;;
43877;SDS011;29815;48.184;11.268;2023-04-06T07:41:14;9.23;;;7.60;;
43877;SDS011;29815;48.184;11.268;2023-04-06T07:43:44;12.07;;;7.95;;
43877;SDS011;29815;48.184;11.268;2023-04-06T07:46:15;11.85;;;8.80;;
43877;SDS011;29815;48.184;11.268;2023-04-06T07:48:45;9.15;;;7.25;;
43877;SDS011;29815;48.184;11.268;2023-04-06T07:51:14;14.38;;;8.43;;
43877;SDS011;29815;48.184;11.268;2023-04-06T07:53:46;15.57;;;8.32;;
43877;SDS011;29815;48.184;11.268;2023-04-06T07:56:15;11.13;;;7.72;;
43877;SDS011;29815;48.184;11.268;2023-04-06T07:58:45;14.18;;;8.10;;
43877;SDS011;29815;48.184;11.268;2023-04-06T08:01:16;10.02;;;7.63;;
43877;SDS011;29815;48.184;11.268;2023-04-06T08:03:46;12.48;;;8.80;;
43877;SDS011;29815;48.184;11.268;2023-04-06T08:06:16;14.07;;;8.68;;
43877;SDS011;29815;48.184;11.268;2023-04-06T08:08:45;12.73;;;9.68;;
43877;SDS011;29815;48.184;11.268;2023-04-06T08:11:15;11.63;;;8.55;;
43877;SDS011;29815;48.184;11.268;2023-04-06T08:13:45;15.20;;;9.52;;
43877;SDS011;29815;48.184;11.268;2023-04-06T08:16:16;13.57;;;8.93;;
43877;SDS011;29815;48.184;11.268;2023-04-06T08:18:47;11.40;;;8.07;;
43877;SDS011;29815;48.184;11.268;2023-04-06T08:21:16;12.30;;;8.90;;
43877;SDS011;29815;48.184;11.268;2023-04-06T08:23:46;19.85;;;12.13;;
43877;SDS011;29815;48.184;11.268;2023-04-06T08:26:16;15.60;;;9.73;;
43877;SDS011;29815;48.184;11.268;2023-04-06T08:28:46;11.73;;;9.40;;
43877;SDS011;29815;48.184;11.268;2023-04-06T08:31:17;14.43;;;9.50;;
43877;SDS011;29815;48.184;11.268;2023-04-06T08:33:46;12.77;;;9.50;;
43877;SDS011;29815;48.184;11.268;2023-04-06T08:36:16;16.55;;;10.15;;
43877;SDS011;29815;48.184;11.268;2023-04-06T08:41:19;16.52;;;9.70;;
43877;SDS011;29815;48.184;11.268;2023-04-06T08:43:50;12.07;;;8.70;;
43877;SDS011;29815;48.184;11.268;2023-04-06T08:46:28;14.45;;;10.45;;
43877;SDS011;29815;48.184;11.268;2023-04-06T08:48:59;16.15;;;10.15;;
43877;SDS011;29815;48.184;11.268;2023-04-06T08:51:34;18.30;;;10.98;;
43877;SDS011;29815;48.184;11.268;2023-04-06T08:54:06;13.93;;;8.20;;
43877;SDS011;29815;48.184;11.268;2023-04-06T08:56:37;13.15;;;8.63;;
43877;SDS011;29815;48.184;11.268;2023-04-06T08:59:08;9.63;;;8.55;;
43877;SDS011;29815;48.184;11.268;2023-04-06T09:01:40;12.60;;;8.95;;
43877;SDS011;29815;48.184;11.268;2023-04-06T09:04:11;12.07;;;9.80;;
43877;SDS011;29815;48.184;11.268;2023-04-06T09:06:42;13.15;;;9.05;;
43877;SDS011;29815;48.184;11.268;2023-04-06T09:09:12;12.07;;;8.68;;
43877;SDS011;29815;48.184;11.268;2023-04-06T09:11:43;13.43;;;8.98;;
43877;SDS011;29815;48.184;11.268;2023-04-06T09:14:16;11.88;;;9.63;;
43877;SDS011;29815;48.184;11.268;2023-04-06T09:17:03;11.13;;;8.88;;
43877;SDS011;29815;48.184;11.268;2023-04-06T09:19:44;13.10;;;8.95;;
43877;SDS011;29815;48.184;11.268;2023-04-06T09:22:14;13.30;;;9.10;;
43877;SDS011;29815;48.184;11.268;2023-04-06T09:24:45;14.55;;;9.30;;
43877;SDS011;29815;48.184;11.268;2023-04-06T09:27:17;10.67;;;8.70;;
43877;SDS011;29815;48.184;11.268;2023-04-06T09:30:05;11.02;;;8.70;;
43877;SDS011;29815;48.184;11.268;2023-04-06T09:32:48;9.95;;;8.20;;
43877;SDS011;29815;48.184;11.268;2023-04-06T09:35:20;11.65;;;8.60;;
43877;SDS011;29815;48.184;11.268;2023-04-06T09:37:53;10.32;;;8.73;;
43877;SDS011;29815;48.184;11.268;2023-04-06T09:40:23;12.60;;;9.02;;
43877;SDS011;29815;48.184;11.268;2023-04-06T09:42:53;11.55;;;9.32;;
43877;SDS011;29815;48.184;11.268;2023-04-06T09:45:25;10.88;;;9.05;;
43877;SDS011;29815;48.184;11.268;2023-04-06T09:47:59;12.25;;;9.70;;
43877;SDS011;29815;48.184;11.268;2023-04-06T09:50:29;9.63;;;8.32;;
43877;SDS011;29815;48.184;11.268;2023-04-06T09:53:00;11.50;;;7.90;;
43877;SDS011;29815;48.184;11.268;2023-04-06T09:55:36;12.00;;;8.32;;
43877;SDS011;29815;48.184;11.268;2023-04-06T09:58:12;9.90;;;8.38;;
43877;SDS011;29815;48.184;11.268;2023-04-06T10:00:47;9.38;;;8.10;;
43877;SDS011;29815;48.184;11.268;2023-04-06T10:03:30;9.63;;;8.38;;
43877;SDS011;29815;48.184;11.268;2023-04-06T10:06:14;13.50;;;10.07;;
43877;SDS011;29815;48.184;11.268;2023-04-06T10:08:49;10.38;;;9.00;;
43877;SDS011;29815;48.184;11.268;2023-04-06T10:11:22;10.23;;;9.20;;
43877;SDS011;29815;48.184;11.268;2023-04-06T10:13:52;10.52;;;9.00;;
43877;SDS011;29815;48.184;11.268;2023-04-06T10:16:21;11.57;;;9.05;;
43877;SDS011;29815;48.184;11.268;2023-04-06T10:18:55;9.20;;;8.15;;
43877;SDS011;29815;48.184;11.268;2023-04-06T10:21:34;11.40;;;8.93;;
43877;SDS011;29815;48.184;11.268;2023-04-06T10:24:08;10.75;;;8.52;;
43877;SDS011;29815;48.184;11.268;2023-04-06T10:26:39;10.07;;;8.50;;
43877;SDS011;29815;48.184;11.268;2023-04-06T10:29:09;12.00;;;8.93;;
43877;SDS011;29815;48.184;11.268;2023-04-06T10:31:39;11.52;;;9.02;;
43877;SDS011;29815;48.184;11.268;2023-04-06T10:34:13;10.65;;;8.75;;
43877;SDS011;29815;48.184;11.268;2023-04-06T10:36:43;11.20;;;8.13;;
43877;SDS011;29815;48.184;11.268;2023-04-06T10:39:12;9.80;;;8.32;;
43877;SDS011;29815;48.184;11.268;2023-04-06T10:41:43;9.00;;;7.65;;
43877;SDS011;29815;48.184;11.268;2023-04-06T10:44:19;10.00;;;8.10;;
43877;SDS011;29815;48.184;11.268;2023-04-06T10:46:54;10.93;;;8.93;;
43877;SDS011;29815;48.184;11.268;2023-04-06T10:49:29;12.52;;;8.77;;
43877;SDS011;29815;48.184;11.268;2023-04-06T10:51:58;8.32;;;7.13;;
43877;SDS011;29815;48.184;11.268;2023-04-06T10:54:28;9.25;;;7.63;;
43877;SDS011;29815;48.184;11.268;2023-04-06T10:57:00;7.18;;;5.95;;
43877;SDS011;29815;48.184;11.268;2023-04-06T10:59:29;10.60;;;8.85;;
43877;SDS011;29815;48.184;11.268;2023-04-06T11:01:59;9.93;;;8.23;;
43877;SDS011;29815;48.184;11.268;2023-04-06T11:04:30;10.57;;;9.05;;
43877;SDS011;29815;48.184;11.268;2023-04-06T11:07:00;11.02;;;8.30;;
43877;SDS011;29815;48.184;11.268;2023-04-06T11:09:29;9.55;;;7.53;;
43877;SDS011;29815;48.184;11.268;2023-04-06T11:11:59;9.07;;;7.43;;
43877;SDS011;29815;48.184;11.268;2023-04-06T11:14:29;12.40;;;8.77;;
43877;SDS011;29815;48.184;11.268;2023-04-06T11:16:59;9.95;;;7.93;;
43877;SDS011;29815;48.184;11.268;2023-04-06T11:19:30;12.38;;;8.30;;
43877;SDS011;29815;48.184;11.268;2023-04-06T11:22:06;10.43;;;7.47;;
43877;SDS011;29815;48.184;11.268;2023-04-06T11:24:36;10.90;;;8.10;;
43877;SDS011;29815;48.184;11.268;2023-04-06T11:27:06;9.93;;;8.45;;
43877;SDS011;29815;48.184;11.268;2023-04-06T11:29:35;9.13;;;7.47;;
43877;SDS011;29815;48.184;11.268;2023-04-06T11:32:08;10.23;;;7.00;;
43877;SDS011;29815;48.184;11.268;2023-04-06T11:34:39;9.45;;;7.57;;
43877;SDS011;29815;48.184;11.268;2023-04-06T11:37:09;8.90;;;7.97;;
43877;SDS011;29815;48.184;11.268;2023-04-06T11:39:46;9.60;;;7.25;;
43877;SDS011;29815;48.184;11.268;2023-04-06T11:42:21;8.75;;;7.82;;
43877;SDS011;29815;48.184;11.268;2023-04-06T11:44:53;9.43;;;7.88;;
43877;SDS011;29815;48.184;11.268;2023-04-06T11:47:28;9.45;;;7.35;;
43877;SDS011;29815;48.184;11.268;2023-04-06T11:50:06;8.93;;;6.60;;
43877;SDS011;29815;48.184;11.268;2023-04-06T11:52:39;7.95;;;7.15;;
43877;SDS011;29815;48.184;11.268;2023-04-06T11:55:10;8.82;;;7.93;;
43877;SDS011;29815;48.184;11.268;2023-04-06T11:57:43;8.63;;;7.38;;
43877;SDS011;29815;48.184;11.268;2023-04-06T12:00:13;11.80;;;8.00;;
43877;SDS011;29815;48.184;11.268;2023-04-06T12:02:45;11.15;;;8.95;;
43877;SDS011;29815;48.184;11.268;2023-04-06T12:05:18;9.13;;;8.13;;
43877;SDS011;29815;48.184;11.268;2023-04-06T12:07:48;9.75;;;8.02;;
43877;SDS011;29815;48.184;11.268;2023-04-06T12:10:18;10.48;;;9.43;;
43877;SDS011;29815;48.184;11.268;2023-04-06T12:12:47;10.18;;;8.90;;
43877;SDS011;29815;48.184;11.268;2023-04-06T12:15:17;10.25;;;8.18;;
43877;SDS011;29815;48.184;11.268;2023-04-06T12:17:47;10.75;;;9.07;;
43877;SDS011;29815;48.184;11.268;2023-04-06T12:20:18;11.52;;;8.82;;
43877;SDS011;29815;48.184;11.268;2023-04-06T12:22:53;10.05;;;8.82;;
43877;SDS011;29815;48.184;11.268;2023-04-06T12:25:23;9.10;;;8.15;;
43877;SDS011;29815;48.184;11.268;2023-04-06T12:27:53;10.90;;;7.90;;
43877;SDS011;29815;48.184;11.268;2023-04-06T12:30:23;10.45;;;9.43;;
43877;SDS011;29815;48.184;11.268;2023-04-06T12:32:53;9.43;;;8.07;;
43877;SDS011;29815;48.184;11.268;2023-04-06T12:35:24;9.63;;;8.63;;
43877;SDS011;29815;48.184;11.268;2023-04-06T12:37:54;10.57;;;8.57;;
43877;SDS011;29815;48.184;11.268;2023-04-06T12:40:23;8.90;;;7.95;;
43877;SDS011;29815;48.184;11.268;2023-04-06T12:42:53;8.75;;;7.85;;
43877;SDS011;29815;48.184;11.268;2023-04-06T12:45:23;9.32;;;8.40;;
43877;SDS011;29815;48.184;11.268;2023-04-06T12:47:52;9.02;;;8.18;;
43877;SDS011;29815;48.184;11.268;2023-04-06T12:50:22;8.98;;;7.53;;
43877;SDS011;29815;48.184;11.268;2023-04-06T12:52:53;8.90;;;8.00;;
43877;SDS011;29815;48.184;11.268;2023-04-06T12:55:23;8.55;;;7.68;;
43877;SDS011;29815;48.184;11.268;2023-04-06T12:57:53;8.43;;;6.78;;
43877;SDS011;29815;48.184;11.268;2023-04-06T13:00:23;8.77;;;6.68;;
43877;SDS011;29815;48.184;11.268;2023-04-06T13:02:54;11.10;;;7.80;;
43877;SDS011;29815;48.184;11.268;2023-04-06T13:05:25;9.00;;;8.10;;
43877;SDS011;29815;48.184;11.268;2023-04-06T13:10:26;8.25;;;6.82;;
43877;SDS011;29815;48.184;11.268;2023-04-06T13:12:56;7.43;;;6.68;;
43877;SDS011;29815;48.184;11.268;2023-04-06T13:15:25;7.18;;;6.30;;
43877;SDS011;29815;48.184;11.268;2023-04-06T13:17:55;7.28;;;6.57;;
43877;SDS011;29815;48.184;11.268;2023-04-06T13:20:26;9.82;;;6.05;;
43877;SDS011;29815;48.184;11.268;2023-04-06T13:22:56;6.65;;;5.90;;
43877;SDS011;29815;48.184;11.268;2023-04-06T13:25:26;7.35;;;6.40;;
43877;SDS011;29815;48.184;11.268;2023-04-06T13:27:56;7.32;;;5.70;;
43877;SDS011;29815;48.184;11.268;2023-04-06T13:30:26;9.05;;;6.80;;
43877;SDS011;29815;48.184;11.268;2023-04-06T13:32:56;6.95;;;5.90;;
43877;SDS011;29815;48.184;11.268;2023-04-06T13:35:27;7.97;;;5.50;;
43877;SDS011;29815;48.184;11.268;2023-04-06T13:37:57;5.88;;;5.28;;
43877;SDS011;29815;48.184;11.268;2023-04-06T13:40:26;5.97;;;5.38;;
43877;SDS011;29815;48.184;11.268;2023-04-06T13:42:56;5.43;;;4.63;;
43877;SDS011;29815;48.184;11.268;2023-04-06T13:45:26;5.72;;;4.43;;
43877;SDS011;29815;48.184;11.268;2023-04-06T13:47:55;5.78;;;5.20;;
43877;SDS011;29815;48.184;11.268;2023-04-06T13:50:26;5.93;;;5.35;;
43877;SDS011;29815;48.184;11.268;2023-04-06T13:52:57;6.57;;;5.28;;
43877;SDS011;29815;48.184;11.268;2023-04-06T13:55:26;5.45;;;4.68;;
43877;SDS011;29815;48.184;11.268;2023-04-06T13:57:56;6.35;;;4.82;;
43877;SDS011;29815;48.184;11.268;2023-04-06T14:00:26;6.43;;;4.78;;
43877;SDS011;29815;48.184;11.268;2023-04-06T14:02:55;7.35;;;5.13;;
43877;SDS011;29815;48.184;11.268;2023-04-06T14:05:30;6.05;;;5.25;;
43877;SDS011;29815;48.184;11.268;2023-04-06T14:08:00;4.63;;;4.22;;
43877;SDS011;29815;48.184;11.268;2023-04-06T14:10:30;5.18;;;4.68;;
43877;SDS011;29815;48.184;11.268;2023-04-06T14:12:59;6.45;;;4.65;;
43877;SDS011;29815;48.184;11.268;2023-04-06T14:15:29;5.60;;;4.95;;
43877;SDS011;29815;48.184;11.268;2023-04-06T14:17:58;6.82;;;4.25;;
43877;SDS011;29815;48.184;11.268;2023-04-06T14:20:31;8.05;;;4.65;;
43877;SDS011;29815;48.184;11.268;2023-04-06T14:23:01;5.63;;;4.00;;
43877;SDS011;29815;48.184;11.268;2023-04-06T14:25:31;5.63;;;4.53;;
43877;SDS011;29815;48.184;11.268;2023-04-06T14:28:02;5.68;;;5.00;;
43877;SDS011;29815;48.184;11.268;2023-04-06T14:30:31;5.57;;;4.63;;
43877;SDS011;29815;48.184;11.268;2023-04-06T14:33:01;7.40;;;5.18;;
43877;SDS011;29815;48.184;11.268;2023-04-06T14:35:33;6.55;;;5.30;;
43877;SDS011;29815;48.184;11.268;2023-04-06T14:38:06;6.63;;;4.57;;
43877;SDS011;29815;48.184;11.268;2023-04-06T14:40:36;5.30;;;4.80;;
43877;SDS011;29815;48.184;11.268;2023-04-06T14:43:05;8.00;;;5.65;;
43877;SDS011;29815;48.184;11.268;2023-04-06T14:45:34;6.25;;;5.25;;
43877;SDS011;29815;48.184;11.268;2023-04-06T14:48:06;6.95;;;4.80;;
43877;SDS011;29815;48.184;11.268;2023-04-06T14:50:40;7.18;;;5.45;;
43877;SDS011;29815;48.184;11.268;2023-04-06T14:53:13;6.15;;;4.80;;
43877;SDS011;29815;48.184;11.268;2023-04-06T14:55:43;6.05;;;5.45;;
43877;SDS011;29815;48.184;11.268;2023-04-06T14:58:12;5.68;;;5.15;;
43877;SDS011;29815;48.184;11.268;2023-04-06T15:00:42;5.57;;;4.95;;